Time;durP1;ratioP1;P1;durP2;ratioP2;P2;SDS_P1;SDS_P2;PMS_P1;PMS_P2;Temp;Humidity;BMP_temperature;BMP_pressure;BME280_temperature;BME280_humidity;BME280_pressure;Samples;Min_cycle;Max_cycle;Signal;HPM_P1;HPM_P2
2023/07/06 00:01:48;;;;;;;6.00;2.78;;;;;;;-145.68;68.79;73871.59;10583101;28;20243;-76
2023/07/06 00:06:49;;;;;;;6.40;2.70;;;;;;;-145.68;67.84;73855.59;10582746;28;20314;-76
2023/07/06 00:11:49;;;;;;;4.57;2.70;;;;;;;-145.68;69.27;73863.59;10564523;28;20264;-76
2023/07/06 00:17:07;;;;;;;5.90;2.70;;;;;;;-145.68;68.99;73867.59;10582462;28;20300;-75
2023/07/06 00:22:09;;;;;;;5.43;2.83;;;;;;;-145.68;69.93;73873.59;10582537;28;20190;-75
2023/07/06 00:27:09;;;;;;;4.88;2.88;;;;;;;-145.68;69.48;73855.59;10582072;28;20185;-75
2023/07/06 00:32:26;;;;;;;5.20;2.65;;;;;;;-145.68;70.03;73867.59;10563212;28;20653;-75
2023/07/06 00:37:26;;;;;;;5.85;2.88;;;;;;;-145.68;68.52;73851.59;10563361;28;20221;-76
2023/07/06 00:42:28;;;;;;;4.70;2.80;;;;;;;-145.68;68.22;73861.59;10529605;28;20197;-75
2023/07/06 00:47:31;;;;;;;3.38;2.58;;;;;;;-145.68;67.80;73847.59;10562464;28;20185;-75
2023/07/06 00:52:32;;;;;;;5.10;2.70;;;;;;;-145.68;68.30;73849.59;10581323;28;20701;-75
2023/07/06 00:57:34;;;;;;;7.68;3.40;;;;;;;-145.68;68.27;73857.59;10580585;28;20217;-76
2023/07/06 01:02:40;;;;;;;7.03;2.88;;;;;;;-145.68;68.17;73861.59;10579918;28;20182;-75
2023/07/06 01:07:41;;;;;;;3.90;2.60;;;;;;;-145.68;67.02;73851.59;10561960;28;20197;-76
2023/07/06 01:12:42;;;;;;;8.60;3.20;;;;;;;-145.68;67.44;73847.59;10562438;28;20177;-76
2023/07/06 01:18:00;;;;;;;4.97;2.83;;;;;;;-145.68;65.89;73837.59;10579900;28;20292;-76
2023/07/06 01:23:38;;;;;;;5.47;2.85;;;;;;;-145.68;65.53;73833.59;10561843;28;20541;-76
2023/07/06 01:29:03;;;;;;;4.28;2.65;;;;;;;-145.68;66.12;73847.59;10544339;28;20190;-76
2023/07/06 01:34:28;;;;;;;8.77;3.30;;;;;;;-145.68;69.38;73891.56;10561586;28;20264;-76
2023/07/06 01:39:29;;;;;;;9.57;3.40;;;;;;;-145.68;70.48;73889.56;10543838;28;20653;-76
2023/07/06 01:44:31;;;;;;;5.05;2.88;;;;;;;-145.68;68.70;73873.59;10560930;28;20174;-75
2023/07/06 01:49:33;;;;;;;5.45;2.55;;;;;;;-145.68;67.57;73865.59;10543549;28;20198;-75
2023/07/06 01:54:44;;;;;;;6.83;2.93;;;;;;;-145.68;66.10;73837.59;10558894;28;20209;-75
2023/07/06 01:59:46;;;;;;;7.23;2.63;;;;;;;-145.68;66.39;73847.59;10542261;28;20922;-75
2023/07/06 02:04:49;;;;;;;6.85;2.80;;;;;;;-145.68;66.15;73839.59;10559582;28;20230;-76
2023/07/06 02:09:51;;;;;;;8.82;2.90;;;;;;;-145.68;67.19;73867.59;10577003;28;20228;-75
2023/07/06 02:14:53;;;;;;;5.13;3.00;;;;;;;-145.68;69.31;73893.56;10559491;28;20210;-76
2023/07/06 02:19:53;;;;;;;6.47;3.23;;;;;;;-145.68;74.72;73939.56;10577647;28;20201;-75
2023/07/06 02:24:54;;;;;;;8.20;3.43;;;;;;;-145.68;77.57;73935.56;10559201;28;20266;-75
2023/07/06 02:29:54;;;;;;;6.65;2.75;;;;;;;-145.68;76.97;73933.56;10559052;28;20268;-76
2023/07/06 02:34:55;;;;;;;5.00;2.60;;;;;;;-145.68;75.24;73903.56;10558681;28;20241;-75
2023/07/06 02:39:58;;;;;;;8.90;3.20;;;;;;;-145.68;77.58;73919.56;10576814;28;20293;-76
2023/07/06 02:44:58;;;;;;;4.10;2.77;;;;;;;-145.68;81.63;73941.56;10558491;28;20182;-75
2023/07/06 02:49:59;;;;;;;5.80;3.20;;;;;;;-145.68;86.11;73961.53;10576640;28;20186;-76
2023/07/06 02:54:59;;;;;;;6.43;3.50;;;;;;;-145.68;87.18;73955.53;10576962;28;20220;-76
2023/07/06 03:00:00;;;;;;;5.77;3.13;;;;;;;-145.68;88.21;73955.53;10576078;28;20193;-76
2023/07/06 03:05:04;;;;;;;3.30;2.83;;;;;;;-145.68;86.45;73951.53;10528858;28;20191;-76
2023/07/06 03:10:05;;;;;;;8.43;3.47;;;;;;;-145.68;86.90;73965.53;10529936;28;20197;-76
2023/07/06 03:15:10;;;;;;;13.43;3.00;;;;;;;-145.68;91.51;73969.53;10530311;28;20244;-76
2023/07/06 03:20:14;;;;;;;4.37;2.90;;;;;;;-145.68;87.76;73967.53;10529983;28;20647;-76
2023/07/06 03:25:25;;;;;;;5.43;2.90;;;;;;;-145.68;85.40;73959.53;10530121;28;20194;-76
2023/07/06 03:30:29;;;;;;;5.90;3.50;;;;;;;-145.68;81.94;73953.53;10530171;28;20212;-76
2023/07/06 03:35:29;;;;;;;6.00;3.20;;;;;;;-145.68;81.75;73965.53;10529702;28;20229;-76
2023/07/06 03:40:31;;;;;;;5.38;3.45;;;;;;;-145.68;79.53;73945.56;10529664;28;20286;-76
2023/07/06 03:45:31;;;;;;;5.43;3.23;;;;;;;-145.68;79.24;73959.53;10511790;28;20186;-76
2023/07/06 03:50:32;;;;;;;4.97;3.20;;;;;;;-145.68;77.81;73953.53;10529200;28;20239;-76
2023/07/06 03:55:32;;;;;;;7.83;3.53;;;;;;;-145.68;77.60;73957.53;10529273;28;20222;-75
2023/07/06 04:00:34;;;;;;;9.23;3.10;;;;;;;-145.68;78.23;73973.53;10529566;28;20190;-76
2023/07/06 04:05:37;;;;;;;6.30;2.87;;;;;;;-145.68;78.56;73975.53;10533232;28;20181;-76
2023/07/06 04:10:39;;;;;;;4.47;3.00;;;;;;;-145.68;78.13;73973.53;10532600;28;20594;-75
2023/07/06 04:15:42;;;;;;;6.83;3.50;;;;;;;-145.68;78.24;73959.53;10534289;28;20222;-75
2023/07/06 04:20:43;;;;;;;4.43;3.05;;;;;;;-145.68;77.99;73949.56;10522030;28;20605;-77
2023/07/06 04:25:43;;;;;;;6.47;3.30;;;;;;;-145.68;78.60;73953.53;10540318;28;20199;-76
2023/07/06 04:30:44;;;;;;;9.37;3.83;;;;;;;-145.68;78.53;73949.56;10539345;28;20195;-75
2023/07/06 04:35:51;;;;;;;4.07;2.42;;;;;;;-145.68;78.24;73927.56;10521833;28;20287;-75
2023/07/06 04:40:51;;;;;;;6.25;3.35;;;;;;;-145.68;77.22;73901.56;10521075;28;20221;-76
2023/07/06 04:45:55;;;;;;;6.85;2.85;;;;;;;-145.68;75.37;73871.59;10521259;28;20188;-76
2023/07/06 04:50:56;;;;;;;7.22;2.97;;;;;;;-145.68;74.12;73839.59;10539192;28;20196;-75
2023/07/06 04:55:59;;;;;;;8.95;2.97;;;;;;;-145.68;74.31;73839.59;10538803;28;20559;-75
2023/07/06 05:01:06;;;;;;;5.70;2.90;;;;;;;-145.68;75.17;73847.59;10538559;28;20209;-76
2023/07/06 05:06:12;;;;;;;7.53;3.72;;;;;;;-145.68;73.78;73815.63;10521052;28;20274;-75
2023/07/06 05:11:13;;;;;;;5.88;2.80;;;;;;;-145.68;71.47;73757.66;10538364;28;20278;-76
2023/07/06 05:16:13;;;;;;;7.18;3.33;;;;;;;-145.68;68.91;73705.69;10519950;28;20211;-75
2023/07/06 05:21:14;;;;;;;6.82;3.25;;;;;;;-145.68;67.73;73697.69;10537766;28;20221;-75
2023/07/06 05:26:15;;;;;;;10.68;2.67;;;;;;;-145.68;64.97;73631.72;10537638;28;20212;-75
2023/07/06 05:31:15;;;;;;;7.88;2.85;;;;;;;-145.68;62.62;73573.75;10537493;28;20717;-76
2023/07/06 05:36:16;;;;;;;6.07;3.40;;;;;;;-145.68;61.51;73519.78;10518702;28;20215;-75
2023/07/06 05:41:17;;;;;;;5.65;2.40;;;;;;;-145.68;59.08;73479.81;10519233;28;20203;-76
2023/07/06 05:46:17;;;;;;;6.32;2.40;;;;;;;-145.68;57.58;73455.81;10559557;28;20211;-76
2023/07/06 05:51:17;;;;;;;4.13;2.38;;;;;;;-145.68;56.36;73401.84;10577575;28;20186;-76
2023/07/06 05:56:21;;;;;;;6.97;2.30;;;;;;;-145.68;53.32;73339.91;10577534;28;20205;-76
2023/07/06 06:01:24;;;;;;;4.32;2.20;;;;;;;-145.68;51.74;73303.91;10577820;28;20189;-76
2023/07/06 06:06:26;;;;;;;3.97;2.25;;;;;;;-145.68;49.66;73285.94;10556107;28;20199;-76
2023/07/06 06:11:27;;;;;;;5.25;2.20;;;;;;;-145.68;49.70;73215.97;10576186;28;20197;-76
2023/07/06 06:16:27;;;;;;;4.93;2.25;;;;;;;-145.68;48.67;73168.00;10576766;28;20685;-76
2023/07/06 06:21:29;;;;;;;4.68;1.98;;;;;;;-145.68;48.75;73201.97;10576235;28;20680;-76
2023/07/06 06:26:30;;;;;;;4.53;2.38;;;;;;;-145.68;46.74;73078.06;10576379;28;20178;-77
2023/07/06 06:31:30;;;;;;;2.70;1.80;;;;;;;-145.68;45.25;72996.13;10576501;28;20230;-77
2023/07/06 06:36:31;;;;;;;3.40;1.75;;;;;;;-145.68;45.78;73040.09;10576623;28;20874;-77
2023/07/06 06:41:31;;;;;;;3.33;2.10;;;;;;;-145.68;45.61;73104.06;10576697;28;20206;-76
2023/07/06 06:46:31;;;;;;;3.72;1.77;;;;;;;-145.68;46.24;73168.00;10570942;28;20692;-75
2023/07/06 06:51:32;;;;;;;3.60;1.80;;;;;;;-145.68;45.38;73142.03;10575229;28;20657;-75
2023/07/06 06:56:32;;;;;;;4.15;1.92;;;;;;;-145.68;43.97;72976.16;10574775;28;20213;-75
2023/07/06 07:01:33;;;;;;;2.90;1.92;;;;;;;-145.68;42.83;72882.22;10574738;28;20190;-75
2023/07/06 07:06:33;;;;;;;4.80;1.98;;;;;;;-145.68;43.05;72838.25;10574223;28;20286;-75
2023/07/06 07:11:33;;;;;;;3.83;2.05;;;;;;;-145.68;40.83;72636.41;10574894;28;20190;-76
2023/07/06 07:16:37;;;;;;;3.78;2.10;;;;;;;-145.68;41.67;72732.34;10573456;28;20217;-76
2023/07/06 07:21:37;;;;;;;3.65;1.80;;;;;;;-145.68;41.33;72774.31;10560022;28;20645;-76
2023/07/06 07:26:38;;;;;;;3.92;1.83;;;;;;;-145.68;38.97;72580.47;10574408;28;20194;-76
2023/07/06 07:31:38;;;;;;;3.35;1.70;;;;;;;-145.68;39.26;72628.41;10573807;28;20268;-76
2023/07/06 07:36:39;;;;;;;3.70;2.08;;;;;;;-145.68;37.71;72598.44;10573818;28;20221;-76
2023/07/06 07:41:42;;;;;;;1.85;1.60;;;;;;;-145.68;38.59;72648.41;10574155;28;20208;-75
2023/07/06 07:46:43;;;;;;;5.03;1.70;;;;;;;-145.68;40.48;72792.28;10572683;28;20225;-75
2023/07/06 07:51:44;;;;;;;4.00;1.92;;;;;;;-145.68;40.96;72836.25;10575536;28;20174;-75
2023/07/06 07:56:44;;;;;;;4.35;1.83;;;;;;;-145.68;41.23;72902.19;10561618;28;20301;-75
2023/07/06 08:01:45;;;;;;;4.40;1.80;;;;;;;-145.68;41.60;72942.16;10579163;28;20193;-75
2023/07/06 08:06:46;;;;;;;3.53;1.58;;;;;;;-145.68;40.40;72760.31;10579150;28;20193;-75
2023/07/06 08:11:46;;;;;;;9.82;2.20;;;;;;;-145.68;40.25;72772.31;10576582;28;20205;-75
2023/07/06 08:16:47;;;;;;;4.38;1.90;;;;;;;-145.68;42.02;72900.19;10578816;28;20319;-75
2023/07/06 08:21:47;;;;;;;4.20;1.77;;;;;;;-145.68;41.34;72844.25;10578639;28;20295;-75
2023/07/06 08:26:49;;;;;;;6.88;1.95;;;;;;;-145.68;40.27;72784.28;10578129;28;20174;-75
2023/07/06 08:31:50;;;;;;;4.18;1.60;;;;;;;-145.68;39.76;72742.31;10578505;28;20236;-75
2023/07/06 08:36:50;;;;;;;3.58;1.55;;;;;;;-145.68;39.09;72688.38;10578345;28;20216;-76
2023/07/06 08:41:50;;;;;;;2.35;1.77;;;;;;;-145.68;38.14;72646.41;10579565;28;20209;-75
2023/07/06 08:46:55;;;;;;;3.30;1.67;;;;;;;-145.68;37.74;72682.38;10577483;28;20281;-75
2023/07/06 08:51:56;;;;;;;4.93;1.63;;;;;;;-145.68;40.45;72784.28;10578341;28;20198;-75
2023/07/06 08:56:57;;;;;;;2.80;1.58;;;;;;;-145.68;40.69;72770.31;10560163;28;20761;-75
2023/07/06 09:01:57;;;;;;;3.78;2.03;;;;;;;-145.68;41.98;72920.19;10560000;28;20300;-75
2023/07/06 09:07:00;;;;;;;6.25;2.08;;;;;;;-145.68;41.46;72810.28;10573386;28;20244;-75
2023/07/06 09:12:05;;;;;;;3.10;1.70;;;;;;;-145.68;39.08;72618.44;10574505;28;20257;-75
2023/07/06 09:17:06;;;;;;;6.82;2.00;;;;;;;-145.68;38.56;72716.34;10558687;28;20663;-76
2023/07/06 09:22:09;;;;;;;3.67;1.73;;;;;;;-145.68;38.52;72572.47;10577017;28;20201;-75
2023/07/06 09:27:15;;;;;;;4.10;1.73;;;;;;;-145.68;38.31;72670.38;10557761;28;20178;-75
2023/07/06 09:32:20;;;;;;;3.40;1.90;;;;;;;-145.68;40.38;72852.25;10558676;28;20882;-75
2023/07/06 09:37:20;;;;;;;6.10;1.90;;;;;;;-145.68;39.14;72664.38;10576180;28;20222;-75
2023/07/06 09:42:22;;;;;;;1.95;1.27;;;;;;;-145.68;36.51;72564.47;10557544;28;20190;-75
2023/07/06 09:47:23;;;;;;;5.05;1.90;;;;;;;-145.68;37.09;72552.47;10576756;28;20194;-75
2023/07/06 09:52:24;;;;;;;3.47;1.48;;;;;;;-145.68;35.90;72486.53;10575619;28;20211;-75
2023/07/06 09:57:26;;;;;;;5.32;1.77;;;;;;;-145.68;36.86;72576.47;10565621;28;20249;-76
2023/07/06 10:02:48;;;;;;;3.97;1.90;;;;;;;-145.68;37.43;72706.34;10569787;28;20219;-75
2023/07/06 10:08:00;;;;;;;5.82;1.80;;;;;;;-145.68;36.45;72522.50;10541445;28;20239;-75
2023/07/06 10:13:11;;;;;;;3.33;1.90;;;;;;;-145.68;35.66;72366.63;10538591;28;20679;-76
2023/07/06 10:18:30;;;;;;;5.22;1.65;;;;;;;-145.68;34.81;72302.69;10557039;28;20609;-75
2023/07/06 10:23:36;;;;;;;2.70;1.55;;;;;;;-145.68;35.30;72422.59;10555225;28;20649;-75
2023/07/06 10:28:40;;;;;;;2.33;1.63;;;;;;;-145.68;35.74;72530.50;10551203;28;20272;-75
2023/07/06 10:34:16;;;;;;;5.03;1.90;;;;;;;-145.68;36.48;72556.47;10575608;28;20218;-76
2023/07/06 10:39:25;;;;;;;4.30;1.60;;;;;;;-145.68;36.01;72454.56;10527692;28;20275;-76
2023/07/06 10:44:40;;;;;;;3.33;1.75;;;;;;;-145.68;35.80;72436.56;10571731;28;20182;-76
2023/07/06 10:50:03;;;;;;;2.92;1.90;;;;;;;-145.68;33.43;72250.75;10573475;28;20216;-76
2023/07/06 10:55:22;;;;;;;5.78;2.00;;;;;;;-145.68;32.92;72248.75;10573987;28;20236;-76
2023/07/06 11:00:31;;;;;;;2.92;1.95;;;;;;;-145.68;33.43;72228.75;10537742;28;20293;-76
2023/07/06 11:05:36;;;;;;;3.60;2.00;;;;;;;-145.68;34.56;72340.66;10552281;28;20209;-76
2023/07/06 11:10:39;;;;;;;3.53;1.75;;;;;;;-145.68;32.64;72196.78;10553637;28;20194;-77
2023/07/06 11:15:48;;;;;;;3.95;1.70;;;;;;;-145.68;31.90;72172.81;10573345;28;20218;-77
2023/07/06 11:20:56;;;;;;;3.95;1.88;;;;;;;-145.68;32.87;72306.69;10573090;28;20197;-77
2023/07/06 11:25:58;;;;;;;5.03;2.28;;;;;;;-145.68;33.87;72482.53;10541635;28;20185;-77
2023/07/06 11:31:24;;;;;;;5.43;1.98;;;;;;;-145.68;32.10;72078.91;10581328;28;20207;-78
2023/07/06 11:36:39;;;;;;;3.58;2.05;;;;;;;-145.68;31.21;72224.78;10563132;28;20721;-76
2023/07/06 11:41:53;;;;;;;3.40;1.63;;;;;;;-145.68;31.70;72190.81;10577374;28;20581;-76
2023/07/06 11:47:15;;;;;;;3.72;1.90;;;;;;;-145.68;31.59;72048.94;10575852;28;20197;-76
2023/07/06 11:52:20;;;;;;;3.30;1.95;;;;;;;-145.68;30.60;72048.94;10579889;28;20182;-76
2023/07/06 11:57:28;;;;;;;4.15;1.60;;;;;;;-145.68;31.27;72098.88;10580270;28;21702;-76
2023/07/06 12:02:30;;;;;;;4.22;2.00;;;;;;;-145.68;30.57;71951.03;10578965;28;20190;-76
2023/07/06 12:07:32;;;;;;;3.83;1.60;;;;;;;-145.68;31.49;72154.84;10579939;28;20189;-76
2023/07/06 12:12:33;;;;;;;3.53;1.73;;;;;;;-145.68;33.30;72284.72;10580699;28;20194;-76
2023/07/06 12:17:34;;;;;;;7.50;2.30;;;;;;;-145.68;32.26;72208.78;10580995;28;20282;-76
2023/07/06 12:22:34;;;;;;;3.33;1.75;;;;;;;-145.68;31.59;72048.94;10580392;28;20233;-76
2023/07/06 12:27:35;;;;;;;1.60;1.30;;;;;;;-145.68;30.04;71975.00;10580544;28;20189;-76
2023/07/06 12:32:36;;;;;;;8.05;2.40;;;;;;;-145.68;33.06;72326.69;10579883;28;20499;-76
2023/07/06 12:37:41;;;;;;;2.13;1.60;;;;;;;-145.68;33.42;72404.59;10579169;28;20217;-76
2023/07/06 12:42:41;;;;;;;5.22;1.85;;;;;;;-145.68;34.43;72336.66;10561988;28;20189;-73
2023/07/06 12:47:43;;;;;;;6.78;1.95;;;;;;;-145.68;33.41;72376.63;10560930;28;20178;-73
2023/07/06 12:52:45;;;;;;;3.88;1.90;;;;;;;-145.68;34.30;72498.53;10554494;28;20191;-73
2023/07/06 12:57:45;;;;;;;3.20;1.95;;;;;;;-145.68;32.63;72104.88;10515650;28;20301;-73
2023/07/06 13:02:53;;;;;;;4.90;1.85;;;;;;;-145.68;31.57;71945.03;10536874;28;20190;-73
2023/07/06 13:07:54;;;;;;;5.53;1.98;;;;;;;-145.68;30.47;71901.09;10536879;28;20205;-73
2023/07/06 13:12:55;;;;;;;4.13;1.88;;;;;;;-145.68;28.18;71555.44;10551116;28;20221;-73
2023/07/06 13:18:01;;;;;;;4.07;1.70;;;;;;;-145.68;28.77;71885.09;10578019;28;20262;-75
2023/07/06 13:23:04;;;;;;;4.63;1.95;;;;;;;-145.68;29.67;71829.16;10560664;28;20737;-74
2023/07/06 13:28:04;;;;;;;3.13;1.70;;;;;;;-145.68;31.43;71853.13;10576474;28;20201;-74
2023/07/06 13:33:05;;;;;;;7.05;2.20;;;;;;;-145.68;30.61;71791.19;10576985;28;20232;-74
2023/07/06 13:38:05;;;;;;;3.65;2.00;;;;;;;-145.68;28.92;71515.47;10576381;28;20222;-74
2023/07/06 13:43:09;;;;;;;3.92;1.52;;;;;;;-145.68;26.17;71109.94;10576637;28;20202;-74
2023/07/06 13:48:12;;;;;;;4.80;2.17;;;;;;;-145.68;28.11;71595.41;10558393;28;20194;-74
2023/07/06 13:53:12;;;;;;;4.60;1.90;;;;;;;-145.68;26.59;71431.56;10559110;28;20198;-75
2023/07/06 13:58:14;;;;;;;4.72;1.83;;;;;;;-145.68;28.11;71467.53;10571465;28;20786;-74
2023/07/06 14:03:17;;;;;;;5.38;1.50;;;;;;;-145.68;27.03;71369.66;10574676;28;20304;-74
2023/07/06 14:08:20;;;;;;;5.60;2.05;;;;;;;-145.68;29.32;71779.19;10575355;28;20654;-74
2023/07/06 14:13:23;;;;;;;2.65;1.75;;;;;;;-145.68;27.61;71385.63;10575375;28;20681;-74
2023/07/06 14:18:23;;;;;;;2.92;2.10;;;;;;;-145.68;26.60;71369.66;10573755;28;20181;-74
2023/07/06 14:23:26;;;;;;;4.93;1.73;;;;;;;-145.68;29.34;71925.06;10574368;28;20186;-74
2023/07/06 14:28:27;;;;;;;4.85;1.75;;;;;;;-145.68;27.99;71617.38;10574207;28;20428;-74
2023/07/06 14:33:28;;;;;;;3.90;1.90;;;;;;;-145.68;26.44;71279.75;10552258;28;20349;-74
2023/07/06 14:38:28;;;;;;;5.78;2.22;;;;;;;-145.68;27.34;71339.69;10572498;28;20221;-74
2023/07/06 14:43:29;;;;;;;4.90;2.00;;;;;;;-145.68;25.49;71081.97;10573733;28;20261;-74
2023/07/06 14:48:30;;;;;;;2.17;1.67;;;;;;;-145.68;27.06;71393.63;10572303;28;20514;-74
2023/07/06 14:53:30;;;;;;;4.17;1.83;;;;;;;-145.68;26.81;71479.53;10573019;28;20233;-75
2023/07/06 14:58:31;;;;;;;2.53;1.67;;;;;;;-145.68;27.85;71749.22;10573058;28;20435;-74
2023/07/06 15:03:31;;;;;;;4.35;1.80;;;;;;;-145.68;27.60;71467.53;10553905;28;20200;-75
2023/07/06 15:08:31;;;;;;;4.30;1.77;;;;;;;-145.68;27.00;71357.66;10572497;28;20181;-74
2023/07/06 15:13:32;;;;;;;4.60;1.47;;;;;;;-145.68;26.54;71147.91;10572890;28;20514;-75
2023/07/06 15:18:32;;;;;;;3.17;1.90;;;;;;;-145.68;26.24;71093.97;10572085;28;20185;-75
2023/07/06 15:23:33;;;;;;;3.07;1.80;;;;;;;-145.68;26.54;71211.84;10571703;28;20200;-74
2023/07/06 15:28:33;;;;;;;7.07;1.85;;;;;;;-145.68;27.47;71381.63;10572775;28;20193;-74
2023/07/06 15:33:33;;;;;;;3.13;1.83;;;;;;;-145.68;26.67;71257.78;10572287;28;20231;-74
2023/07/06 15:38:34;;;;;;;4.63;1.70;;;;;;;-145.68;27.31;71403.63;10571721;28;20470;-74
2023/07/06 15:43:34;;;;;;;2.27;1.50;;;;;;;-145.68;27.66;71409.59;10573962;28;20443;-74
2023/07/06 15:48:34;;;;;;;2.40;1.67;;;;;;;-145.68;28.35;71561.44;10573807;28;20500;-74
2023/07/06 15:53:36;;;;;;;2.40;1.50;;;;;;;-145.68;29.71;71751.22;10571430;28;20434;-74
2023/07/06 15:58:37;;;;;;;2.30;1.40;;;;;;;-145.68;27.94;71471.53;10573988;28;20182;-74
2023/07/06 16:03:37;;;;;;;2.22;1.50;;;;;;;-145.68;28.72;71597.41;10574073;28;20205;-74
2023/07/06 16:08:37;;;;;;;5.47;1.70;;;;;;;-145.68;30.50;71907.06;10574809;28;20190;-74
2023/07/06 16:13:38;;;;;;;4.88;1.80;;;;;;;-145.68;30.83;71949.03;10579839;28;20197;-74
2023/07/06 16:18:38;;;;;;;5.07;1.70;;;;;;;-145.68;31.72;72032.94;10582336;28;20243;-75
2023/07/06 16:23:41;;;;;;;3.77;1.70;;;;;;;-145.68;32.24;72020.97;10582687;28;20435;-74
2023/07/06 16:28:44;;;;;;;4.35;1.65;;;;;;;-145.68;32.24;72096.88;10581260;28;20435;-74
2023/07/06 16:33:44;;;;;;;2.95;1.92;;;;;;;-145.68;32.94;72200.78;10582390;28;20239;-74
2023/07/06 16:38:45;;;;;;;2.80;1.70;;;;;;;-145.68;33.66;72256.75;10581819;28;20250;-74
2023/07/06 16:43:45;;;;;;;4.55;1.92;;;;;;;-145.68;34.01;72260.72;10581213;28;20194;-74
2023/07/06 16:48:46;;;;;;;5.60;1.73;;;;;;;-145.68;34.49;72296.69;10581701;28;20189;-74
2023/07/06 16:53:46;;;;;;;2.88;1.55;;;;;;;-145.68;35.76;72370.63;10581027;28;20189;-74
2023/07/06 16:58:47;;;;;;;5.60;1.90;;;;;;;-145.68;34.47;72316.69;10581364;28;20190;-74
2023/07/06 17:03:47;;;;;;;3.05;1.60;;;;;;;-145.68;34.62;72328.69;10580806;28;20214;-74
2023/07/06 17:08:48;;;;;;;7.38;2.10;;;;;;;-145.68;35.46;72388.63;10580968;28;20208;-74
2023/07/06 17:13:48;;;;;;;5.53;1.77;;;;;;;-145.68;36.21;72500.53;10580601;28;20221;-74
2023/07/06 17:18:49;;;;;;;2.47;1.50;;;;;;;-145.68;36.64;72488.53;10579934;28;20186;-74
2023/07/06 17:23:49;;;;;;;4.25;1.60;;;;;;;-145.68;36.62;72492.53;10580152;28;20249;-74
2023/07/06 17:28:49;;;;;;;3.28;1.73;;;;;;;-145.68;36.62;72492.53;10579344;28;20198;-74
2023/07/06 17:33:50;;;;;;;3.80;2.33;;;;;;;-145.68;37.27;72506.50;10579576;28;20222;-74
2023/07/06 17:38:50;;;;;;;4.85;1.65;;;;;;;-145.68;37.30;72526.50;10579275;28;20217;-74
2023/07/06 17:43:51;;;;;;;8.38;2.20;;;;;;;-145.68;36.69;72516.50;10579149;28;20218;-74
2023/07/06 17:48:51;;;;;;;5.15;1.92;;;;;;;-145.68;37.28;72550.47;10579197;28;20201;-74
2023/07/06 17:53:51;;;;;;;2.78;1.80;;;;;;;-145.68;37.28;72558.47;10579116;28;20259;-74
2023/07/06 17:58:52;;;;;;;4.03;1.77;;;;;;;-145.68;37.66;72602.44;10578430;28;20189;-74
2023/07/06 18:03:52;;;;;;;3.05;1.80;;;;;;;-145.68;38.36;72618.44;10578506;28;20214;-74
2023/07/06 18:08:53;;;;;;;2.65;1.67;;;;;;;-145.68;38.60;72652.41;10578422;28;20190;-74
2023/07/06 18:13:53;;;;;;;3.70;2.00;;;;;;;-145.68;38.23;72644.41;10576855;28;20550;-74
2023/07/06 18:18:53;;;;;;;7.88;1.83;;;;;;;-145.68;38.84;72662.38;10577195;28;20637;-74
2023/07/06 18:23:54;;;;;;;3.33;1.83;;;;;;;-145.68;39.06;72680.38;10576455;28;20210;-73
2023/07/06 18:28:54;;;;;;;2.80;1.73;;;;;;;-145.68;39.73;72706.34;10577065;28;20239;-73
2023/07/06 18:33:55;;;;;;;2.53;1.83;;;;;;;-145.68;41.17;72764.31;10575336;28;20721;-73
2023/07/06 18:38:55;;;;;;;5.63;2.00;;;;;;;-145.68;42.89;72862.22;10575804;28;20218;-73
2023/07/06 18:43:55;;;;;;;2.35;1.83;;;;;;;-145.68;44.02;72942.16;10576348;28;20221;-73
2023/07/06 18:48:56;;;;;;;2.72;1.73;;;;;;;-145.68;45.31;72984.13;10575339;28;20219;-72
2023/07/06 18:53:56;;;;;;;4.30;2.05;;;;;;;-145.68;47.46;73126.03;10576028;28;20261;-72
2023/07/06 18:58:56;;;;;;;5.80;1.92;;;;;;;-145.68;49.12;73176.00;10565693;28;20201;-72
2023/07/06 19:03:57;;;;;;;8.63;2.45;;;;;;;-145.68;52.01;73269.94;10574288;28;20696;-72
2023/07/06 19:08:57;;;;;;;4.97;2.63;;;;;;;-145.68;54.14;73369.88;10573658;28;20828;-73
2023/07/06 19:13:58;;;;;;;7.35;2.88;;;;;;;-145.68;55.03;73369.88;10575385;28;20197;-72
2023/07/06 19:18:58;;;;;;;5.28;1.88;;;;;;;-145.68;55.13;73399.84;10558624;28;20202;-73
2023/07/06 19:24:00;;;;;;;5.32;2.05;;;;;;;-145.68;55.54;73407.84;10532605;28;20229;-73
2023/07/06 19:29:00;;;;;;;2.20;2.00;;;;;;;-145.68;56.43;73443.84;10533269;28;20182;-73
2023/07/06 19:34:01;;;;;;;6.53;2.60;;;;;;;-145.68;58.67;73527.78;10532489;28;20222;-74
2023/07/06 19:39:01;;;;;;;4.53;2.20;;;;;;;-145.68;59.07;73535.78;10532440;28;20708;-73
2023/07/06 19:44:02;;;;;;;2.45;2.10;;;;;;;-145.68;59.54;73557.75;10532527;28;20230;-73
2023/07/06 19:49:03;;;;;;;2.67;2.10;;;;;;;-145.68;60.29;73585.75;10539970;28;20704;-74
2023/07/06 19:54:03;;;;;;;5.88;2.92;;;;;;;-145.68;61.23;73601.72;10540670;28;20202;-74
2023/07/06 19:59:04;;;;;;;3.45;2.60;;;;;;;-145.68;61.28;73611.72;10540036;28;20204;-74
2023/07/06 20:04:05;;;;;;;5.45;2.88;;;;;;;-145.68;61.17;73621.72;10540684;28;20214;-74
2023/07/06 20:09:06;;;;;;;4.05;2.72;;;;;;;-145.68;61.25;73643.72;10539624;28;20296;-73
2023/07/06 20:14:06;;;;;;;7.75;2.58;;;;;;;-145.68;61.70;73651.72;10522011;28;20179;-73
2023/07/06 20:19:07;;;;;;;4.65;2.42;;;;;;;-145.68;61.60;73655.69;10539733;28;20742;-73
2023/07/06 20:24:07;;;;;;;3.15;2.20;;;;;;;-145.68;61.84;73671.69;10539464;28;20210;-73
2023/07/06 20:29:08;;;;;;;4.45;2.65;;;;;;;-145.68;61.77;73687.69;10539582;28;20193;-73
2023/07/06 20:34:08;;;;;;;5.75;2.70;;;;;;;-145.68;62.42;73715.66;10578139;28;20230;-73
2023/07/06 20:39:08;;;;;;;4.55;2.33;;;;;;;-145.68;62.88;73733.66;10581015;28;20212;-74
2023/07/06 20:44:09;;;;;;;2.60;2.15;;;;;;;-145.68;63.28;73753.66;10580733;28;20270;-74
2023/07/06 20:49:09;;;;;;;3.78;2.17;;;;;;;-145.68;64.05;73779.63;10580989;28;20658;-73
2023/07/06 20:54:09;;;;;;;5.63;2.58;;;;;;;-145.68;64.34;73787.63;10581618;28;21061;-73
2023/07/06 20:59:10;;;;;;;2.53;2.15;;;;;;;-145.68;64.70;73803.63;10562511;28;20653;-73
2023/07/06 21:04:11;;;;;;;4.57;2.88;;;;;;;-145.68;65.19;73817.63;10580499;28;20622;-73
2023/07/06 21:09:12;;;;;;;10.05;3.08;;;;;;;-145.68;65.95;73831.59;10570808;28;20677;-74
2023/07/06 21:14:12;;;;;;;5.35;2.35;;;;;;;-145.68;67.08;73867.59;10537977;28;20198;-73
2023/07/06 21:19:14;;;;;;;3.88;2.65;;;;;;;-145.68;67.37;73869.59;10538140;28;20194;-74
2023/07/06 21:24:16;;;;;;;4.28;2.58;;;;;;;-145.68;67.71;73883.59;10520044;28;20305;-74
2023/07/06 21:29:16;;;;;;;6.00;3.08;;;;;;;-145.68;68.24;73897.56;10571268;28;20190;-73
2023/07/06 21:34:19;;;;;;;4.57;2.60;;;;;;;-145.68;68.61;73911.56;10579642;28;20229;-74
2023/07/06 21:39:23;;;;;;;3.75;2.13;;;;;;;-145.68;69.47;73933.56;10554467;27;20249;-74
2023/07/06 21:44:24;;;;;;;4.10;2.60;;;;;;;-145.68;70.90;73959.53;10537515;28;20686;-73
2023/07/06 21:49:24;;;;;;;9.05;2.67;;;;;;;-145.68;71.79;73981.53;10536585;28;20189;-73
2023/07/06 21:54:27;;;;;;;5.93;2.90;;;;;;;-145.68;72.92;73993.53;10537196;28;20190;-74
2023/07/06 21:59:28;;;;;;;6.28;2.15;;;;;;;-145.68;73.52;74009.53;10536565;28;20190;-73
2023/07/06 22:04:28;;;;;;;3.83;2.38;;;;;;;-145.68;73.80;74013.53;10535973;28;20214;-74
2023/07/06 22:09:29;;;;;;;3.47;2.58;;;;;;;-145.68;74.02;74025.50;10552250;28;20205;-74
2023/07/06 22:14:29;;;;;;;5.97;2.55;;;;;;;-145.68;74.03;74029.50;10544696;28;20288;-73
2023/07/06 22:19:29;;;;;;;5.85;2.75;;;;;;;-145.68;73.95;74041.50;10577645;28;20334;-74
2023/07/06 22:24:30;;;;;;;5.93;2.70;;;;;;;-145.68;73.99;74047.50;10577611;28;20217;-73
2023/07/06 22:29:30;;;;;;;6.80;2.72;;;;;;;-145.68;74.96;74059.50;10576927;28;20254;-73
2023/07/06 22:34:31;;;;;;;2.55;2.20;;;;;;;-145.68;75.07;74067.50;10559156;28;20834;-73
2023/07/06 22:39:31;;;;;;;7.47;2.35;;;;;;;-145.68;76.09;74077.50;10576845;28;20209;-73
2023/07/06 22:44:32;;;;;;;4.55;2.85;;;;;;;-145.68;77.19;74093.47;10577160;28;20236;-74
2023/07/06 22:49:34;;;;;;;3.47;2.53;;;;;;;-145.68;77.97;74107.47;10577027;28;20557;-73
2023/07/06 22:54:34;;;;;;;6.50;2.80;;;;;;;-145.68;79.01;74123.47;10576724;28;20634;-74